Conrad, Montana
Current Conditions -  °F | °C
As of 3:56 PM on Tuesday 25 Nov 2014 (Local Time) from KCTB Reporting Station
Overcast Overcast  
Wind Chill: 26°   Ceiling: 4900
Heat Index: 33°   Visibility: 10mi
Dew Point: 20°   Wind: 8mph
Humidity: 59%   Direction: 360°N
Pressure: 30.09"   Gusts: NA
Location:  48.17°N, 111.95°W
Report Text: KCTB 252256Z AUTO 36007KT 10SM OVC049 01/M07 A3009 RMK AO2 SLP215 T00061067
Loading
Personal Weather Stations






























Interactive Weather Map New forecast layout! Learn more

10-Day Weather Forecast

Advertisements
Track Severe Weather on mobile